createdAt,value
2023-01-28T00:00:54.363Z,102485.50
2023-01-28T00:03:22.600Z,102483.91
2023-01-28T00:05:50.787Z,102481.31
2023-01-28T00:08:18.607Z,102482.47
2023-01-28T00:10:47.839Z,102480.53
2023-01-28T00:13:15.786Z,102476.97
2023-01-28T00:15:44.561Z,102482.81
2023-01-28T00:18:12.457Z,102480.13
2023-01-28T00:20:40.352Z,102484.41
2023-01-28T00:23:08.203Z,102482.16
2023-01-28T00:25:36.117Z,102485.56
2023-01-28T00:28:05.410Z,102485.47
2023-01-28T00:30:33.367Z,102488.03
2023-01-28T00:33:01.262Z,102491.66
2023-01-28T00:35:30.093Z,102492.53
2023-01-28T00:37:57.950Z,102487.25
2023-01-28T00:40:28.908Z,102489.44
2023-01-28T00:42:57.992Z,102495.91
2023-01-28T00:45:27.264Z,102495.78
2023-01-28T00:47:56.321Z,102491.81
2023-01-28T00:50:24.232Z,102496.88
2023-01-28T00:52:54.122Z,102500.16
2023-01-28T00:55:22.009Z,102511.09
2023-01-28T00:57:50.562Z,102509.28
2023-01-28T01:00:21.097Z,102519.44
2023-01-28T01:02:51.627Z,102519.13
2023-01-28T01:05:19.788Z,102516.44
2023-01-28T01:07:47.675Z,102512.91
2023-01-28T01:10:18.020Z,102512.81
2023-01-28T01:12:47.404Z,102507.22
2023-01-28T01:15:15.930Z,102509.97
2023-01-28T01:17:45.932Z,102510.78
2023-01-28T01:20:18.405Z,102508.91
2023-01-28T01:22:46.842Z,102511.88
2023-01-28T01:25:16.996Z,102511.91
2023-01-28T01:27:46.059Z,102512.75
2023-01-28T01:30:14.562Z,102505.53
2023-01-28T01:32:42.706Z,102506.63
2023-01-28T01:35:11.749Z,102505.41
2023-01-28T01:37:45.611Z,102508.88
2023-01-28T01:40:14.000Z,102509.41
2023-01-28T01:42:42.001Z,102517.72
2023-01-28T01:45:15.588Z,102511.19
2023-01-28T01:47:48.988Z,102511.31
2023-01-28T01:50:27.730Z,102519.13
2023-01-28T01:53:00.811Z,102524.44
2023-01-28T01:55:31.863Z,102524.16
2023-01-28T01:58:06.160Z,102518.81
2023-01-28T02:00:34.262Z,102524.06
2023-01-28T02:03:03.058Z,102523.47
2023-01-28T02:05:31.044Z,102520.81
2023-01-28T02:08:15.665Z,102514.50
2023-01-28T02:10:46.775Z,102522.94
2023-01-28T02:13:18.270Z,102514.25
2023-01-28T02:15:47.628Z,102504.31
2023-01-28T02:18:15.644Z,102512.09
2023-01-28T02:21:05.697Z,102510.38
2023-01-28T02:23:51.940Z,102504.09
2023-01-28T02:26:33.464Z,102510.13
2023-01-28T02:29:07.312Z,102520.28
2023-01-28T02:31:41.212Z,102515.31
2023-01-28T02:34:19.782Z,102510.84
2023-01-28T02:36:52.055Z,102504.00
2023-01-28T02:39:24.417Z,102506.63
2023-01-28T02:41:58.570Z,102511.88
2023-01-28T02:44:27.942Z,102516.91
2023-01-28T02:47:13.725Z,102513.44
2023-01-28T02:49:44.720Z,102511.16
2023-01-28T02:52:46.977Z,102512.59
2023-01-28T02:55:21.873Z,102502.66
2023-01-28T02:58:02.501Z,102507.88
2023-01-28T03:00:38.814Z,102509.38
2023-01-28T03:03:16.641Z,102513.22
2023-01-28T03:06:03.663Z,102511.81
2023-01-28T03:08:56.770Z,102512.59
2023-01-28T03:11:43.154Z,102512.75
2023-01-28T03:14:29.815Z,102505.09
2023-01-28T03:17:20.049Z,102510.75
2023-01-28T03:20:06.555Z,102508.41
2023-01-28T03:22:55.932Z,102511.84
2023-01-28T03:25:45.183Z,102510.50
2023-01-28T03:28:35.742Z,102507.97
2023-01-28T03:31:26.390Z,102513.69
2023-01-28T03:34:18.039Z,102515.25
2023-01-28T03:36:50.918Z,102508.28
2023-01-28T03:39:39.207Z,102507.09
2023-01-28T03:42:12.737Z,102508.72
2023-01-28T03:45:05.362Z,102503.47
2023-01-28T03:47:34.412Z,102505.22
2023-01-28T03:50:07.286Z,102511.66
2023-01-28T03:52:43.617Z,102508.53
2023-01-28T03:55:26.043Z,102518.13
2023-01-28T03:57:54.420Z,102507.97
2023-01-28T04:00:23.376Z,102511.97
2023-01-28T04:02:51.533Z,102504.09
2023-01-28T04:05:22.911Z,102505.78
2023-01-28T04:07:52.217Z,102504.97
2023-01-28T04:10:28.775Z,102505.53
2023-01-28T04:13:05.193Z,102505.75
2023-01-28T04:15:33.376Z,102508.22
2023-01-28T04:18:01.917Z,102502.31
2023-01-28T04:20:32.720Z,102500.34
2023-01-28T04:23:02.265Z,102500.28
2023-01-28T04:25:31.339Z,102501.28
2023-01-28T04:27:59.613Z,102490.34
2023-01-28T04:30:30.352Z,102501.22
2023-01-28T04:33:10.694Z,102500.53
2023-01-28T04:35:48.508Z,102501.31
2023-01-28T04:38:30.118Z,102498.72
2023-01-28T04:41:08.271Z,102502.94
2023-01-28T04:43:37.380Z,102503.69
2023-01-28T04:46:26.130Z,102493.69
2023-01-28T04:49:03.703Z,102497.47
2023-01-28T04:51:53.228Z,102498.44
2023-01-28T04:54:29.915Z,102499.50
2023-01-28T04:57:00.791Z,102486.50
2023-01-28T04:59:29.107Z,102498.38
2023-01-28T05:01:57.403Z,102496.41
2023-01-28T05:04:25.483Z,102490.97
2023-01-28T05:06:55.301Z,102502.16
2023-01-28T05:09:28.337Z,102499.19
2023-01-28T05:11:56.202Z,102502.47
2023-01-28T05:14:24.699Z,102502.84
2023-01-28T05:17:01.792Z,102510.44
2023-01-28T05:19:29.740Z,102508.41
2023-01-28T05:21:59.847Z,102516.72
2023-01-28T05:24:41.795Z,102525.59
2023-01-28T05:27:09.988Z,102524.44
2023-01-28T05:29:37.974Z,102525.00
2023-01-28T05:32:06.340Z,102528.00
2023-01-28T05:34:34.346Z,102522.69
2023-01-28T05:37:10.440Z,102522.47
2023-01-28T05:39:39.688Z,102523.69
2023-01-28T05:42:07.998Z,102522.78
2023-01-28T05:44:40.004Z,102510.38
2023-01-28T05:47:23.853Z,102514.31
2023-01-28T05:50:06.067Z,102506.03
2023-01-28T05:52:35.430Z,102516.06
2023-01-28T05:55:04.247Z,102515.03
2023-01-28T05:57:32.263Z,102520.13
2023-01-28T06:00:02.294Z,102510.81
2023-01-28T06:02:31.202Z,102522.81
2023-01-28T06:05:01.202Z,102521.31
2023-01-28T06:07:29.359Z,102515.97
2023-01-28T06:09:59.831Z,102515.06
2023-01-28T06:12:27.908Z,102505.78
2023-01-28T06:15:21.852Z,102509.09
2023-01-28T06:18:22.020Z,102516.03
2023-01-28T06:20:51.370Z,102517.63
2023-01-28T06:23:19.386Z,102526.56
2023-01-28T06:25:48.832Z,102531.44
2023-01-28T06:28:17.287Z,102523.41
2023-01-28T06:30:45.265Z,102527.56
2023-01-28T06:33:13.136Z,102523.16
2023-01-28T06:35:41.048Z,102517.75
2023-01-28T06:38:08.935Z,102533.28
2023-01-28T06:40:36.930Z,102521.63
2023-01-28T06:43:06.972Z,102533.63
2023-01-28T06:45:35.048Z,102530.72
2023-01-28T06:48:04.131Z,102525.97
2023-01-28T06:50:32.216Z,102530.66
2023-01-28T06:53:00.137Z,102546.84
2023-01-28T06:55:28.005Z,102535.53
2023-01-28T06:57:55.896Z,102529.13
2023-01-28T07:00:25.247Z,102534.50
2023-01-28T07:02:56.696Z,102528.50
2023-01-28T07:05:24.968Z,102537.34
2023-01-28T07:07:52.957Z,102533.63
2023-01-28T07:10:20.808Z,102535.06
2023-01-28T07:12:48.699Z,102535.19
2023-01-28T07:15:16.751Z,102532.22
2023-01-28T07:17:46.630Z,102540.81
2023-01-28T07:20:16.361Z,102537.06
2023-01-28T07:22:45.427Z,102541.16
2023-01-28T07:25:15.000Z,102541.41
2023-01-28T07:27:48.189Z,102537.06
2023-01-28T07:30:16.404Z,102535.66
2023-01-28T07:32:46.428Z,102536.09
2023-01-28T07:35:15.970Z,102539.28
2023-01-28T07:37:43.889Z,102535.75
2023-01-28T07:40:13.146Z,102536.44
2023-01-28T07:42:42.331Z,102541.59
2023-01-28T07:45:13.004Z,102528.22
2023-01-28T07:47:40.910Z,102536.78
2023-01-28T07:50:11.913Z,102548.22
2023-01-28T07:52:44.402Z,102537.16
2023-01-28T07:55:15.414Z,102536.66
2023-01-28T07:57:50.721Z,102539.41
2023-01-28T08:00:19.539Z,102536.03
2023-01-28T08:02:48.886Z,102535.59
2023-01-28T08:05:20.571Z,102540.84
2023-01-28T08:07:49.538Z,102542.06
2023-01-28T08:10:18.338Z,102544.06
2023-01-28T08:12:52.964Z,102555.75
2023-01-28T08:15:20.885Z,102554.22
2023-01-28T08:17:48.793Z,102552.25
2023-01-28T08:20:18.864Z,102561.78
2023-01-28T08:22:46.915Z,102550.56
2023-01-28T08:25:14.915Z,102553.31
2023-01-28T08:27:42.851Z,102550.91
2023-01-28T08:30:11.919Z,102558.31
2023-01-28T08:32:39.940Z,102568.75
2023-01-28T08:35:08.764Z,102568.91
2023-01-28T08:37:37.990Z,102574.94
2023-01-28T08:40:07.112Z,102584.97
2023-01-28T08:42:35.014Z,102585.50
2023-01-28T08:45:02.940Z,102581.75
2023-01-28T08:47:30.787Z,102572.41
2023-01-28T08:49:58.727Z,102583.53
2023-01-28T08:52:26.590Z,102572.00
2023-01-28T08:54:56.031Z,102580.06
2023-01-28T08:57:23.863Z,102578.22
2023-01-28T08:59:51.935Z,102583.06
2023-01-28T09:02:31.105Z,102586.56
2023-01-28T09:05:00.452Z,102592.41
2023-01-28T09:07:28.381Z,102598.03
2023-01-28T09:09:57.793Z,102592.38
2023-01-28T09:12:25.745Z,102599.59
2023-01-28T09:14:53.890Z,102603.00
2023-01-28T09:17:21.972Z,102597.66
2023-01-28T09:19:49.911Z,102600.31
2023-01-28T09:22:18.411Z,102612.66
2023-01-28T09:24:46.501Z,102620.06
2023-01-28T09:27:15.931Z,102613.78
2023-01-28T09:29:43.938Z,102616.84
2023-01-28T09:32:12.070Z,102616.06
2023-01-28T09:34:39.976Z,102619.91
2023-01-28T09:37:07.845Z,102620.50
2023-01-28T09:39:35.711Z,102617.34
2023-01-28T09:42:30.112Z,102611.16
2023-01-28T09:45:05.150Z,102615.31
2023-01-28T09:47:38.492Z,102620.03
2023-01-28T09:50:09.808Z,102620.28
2023-01-28T09:52:43.337Z,102627.28
2023-01-28T09:55:20.879Z,102624.63
2023-01-28T09:57:53.300Z,102623.66
2023-01-28T10:00:24.177Z,102625.91
2023-01-28T10:03:14.381Z,102633.91
2023-01-28T10:05:54.780Z,102626.69
2023-01-28T10:08:34.481Z,102622.78
2023-01-28T10:11:11.987Z,102608.56
2023-01-28T10:13:50.615Z,102616.81
2023-01-28T10:16:30.321Z,102615.63
2023-01-28T10:19:02.253Z,102618.03
2023-01-28T10:21:37.506Z,102600.09
2023-01-28T10:24:11.825Z,102615.63
2023-01-28T10:26:42.414Z,102610.00
2023-01-28T10:29:15.764Z,102606.31
2023-01-28T10:31:53.331Z,102602.00
2023-01-28T10:34:21.820Z,102601.75
2023-01-28T10:36:51.411Z,102607.41
2023-01-28T10:39:22.633Z,102600.22
2023-01-28T10:41:57.800Z,102598.78
2023-01-28T10:44:33.604Z,102595.91
2023-01-28T10:47:05.936Z,102599.28
2023-01-28T10:49:42.106Z,102598.91
2023-01-28T10:52:13.944Z,102598.84
2023-01-28T10:54:41.858Z,102598.94
2023-01-28T10:57:14.077Z,102593.50
2023-01-28T10:59:43.446Z,102599.41
2023-01-28T11:02:28.096Z,102601.19
2023-01-28T11:05:03.815Z,102599.53
2023-01-28T11:07:31.871Z,102597.88
2023-01-28T11:09:59.864Z,102598.22
2023-01-28T11:12:29.758Z,102601.91
2023-01-28T11:15:01.613Z,102605.13
2023-01-28T11:17:33.111Z,102597.81
2023-01-28T11:20:09.812Z,102597.09
2023-01-28T11:22:42.364Z,102590.53
2023-01-28T11:25:19.829Z,102594.75
2023-01-28T11:27:50.027Z,102591.16
2023-01-28T11:30:23.543Z,102596.03
2023-01-28T11:33:00.257Z,102591.56
2023-01-28T11:35:30.806Z,102601.34
2023-01-28T11:37:59.882Z,102599.53
2023-01-28T11:40:28.774Z,102592.28
2023-01-28T11:42:58.402Z,102593.53
2023-01-28T11:45:40.124Z,102593.31
2023-01-28T11:48:21.681Z,102581.38
2023-01-28T11:50:58.300Z,102583.59
2023-01-28T11:54:00.577Z,102592.63
2023-01-28T11:56:44.342Z,102579.41
2023-01-28T11:59:29.374Z,102574.69
2023-01-28T12:02:11.156Z,102576.44
2023-01-28T12:04:54.512Z,102585.03
2023-01-28T12:07:39.581Z,102583.09
2023-01-28T12:10:16.969Z,102584.22
2023-01-28T12:13:02.151Z,102586.75
2023-01-28T12:16:15.523Z,102584.28
2023-01-28T12:19:11.063Z,102573.56
2023-01-28T12:21:50.348Z,102571.94
2023-01-28T12:24:33.356Z,102573.56
2023-01-28T12:27:09.190Z,102573.22
2023-01-28T12:29:47.605Z,102574.41
2023-01-28T12:32:39.153Z,102582.38
2023-01-28T12:35:36.685Z,102580.44
2023-01-28T12:38:17.193Z,102573.78
2023-01-28T12:41:05.763Z,102577.31
2023-01-28T12:43:55.304Z,102577.47
2023-01-28T12:46:43.457Z,102572.66
2023-01-28T12:49:18.087Z,102558.13
2023-01-28T12:52:04.322Z,102562.13
2023-01-28T12:54:38.008Z,102558.41
2023-01-28T12:57:07.570Z,102559.63
2023-01-28T12:59:45.375Z,102555.44
2023-01-28T13:02:27.506Z,102551.09
2023-01-28T13:05:05.231Z,102548.75
2023-01-28T13:07:40.539Z,102545.97
2023-01-28T13:10:18.660Z,102538.66
2023-01-28T13:12:48.039Z,102535.25
2023-01-28T13:15:19.209Z,102526.16
2023-01-28T13:17:58.788Z,102511.75
2023-01-28T13:20:39.339Z,102513.13
2023-01-28T13:23:25.071Z,102504.97
2023-01-28T13:25:54.795Z,102509.59
2023-01-28T13:28:33.364Z,102508.25
2023-01-28T13:31:06.361Z,102515.41
2023-01-28T13:33:37.614Z,102505.50
2023-01-28T13:36:23.463Z,102495.16
2023-01-28T13:39:03.452Z,102495.22
2023-01-28T13:41:49.844Z,102498.78
2023-01-28T13:44:27.419Z,102502.38
2023-01-28T13:46:56.565Z,102494.25
2023-01-28T13:49:29.763Z,102499.53
2023-01-28T13:52:03.015Z,102496.78
2023-01-28T13:54:36.344Z,102496.94
2023-01-28T13:57:31.810Z,102499.66
2023-01-28T14:00:10.248Z,102473.13
2023-01-28T14:03:13.823Z,102482.28
2023-01-28T14:06:12.821Z,102488.91
2023-01-28T14:09:05.891Z,102488.63
2023-01-28T14:11:56.551Z,102476.78
2023-01-28T14:14:41.775Z,102467.72
2023-01-28T14:17:22.493Z,102468.25
2023-01-28T14:19:52.082Z,102476.13
2023-01-28T14:22:21.987Z,102465.94
2023-01-28T14:24:50.650Z,102476.09
2023-01-28T14:27:28.199Z,102470.00
2023-01-28T14:30:09.383Z,102470.41
2023-01-28T14:32:37.444Z,102465.38
2023-01-28T14:35:09.967Z,102479.28
2023-01-28T14:37:39.230Z,102491.66
2023-01-28T14:40:09.617Z,102489.84
2023-01-28T14:42:41.395Z,102497.72
2023-01-28T14:45:23.203Z,102501.00
2023-01-28T14:48:21.077Z,102506.16
2023-01-28T14:51:30.377Z,102496.41
2023-01-28T14:54:23.627Z,102503.84
2023-01-28T14:57:06.187Z,102502.16
2023-01-28T14:59:42.559Z,102501.31
2023-01-28T15:02:19.970Z,102504.09
2023-01-28T15:04:48.443Z,102498.78
2023-01-28T15:07:21.773Z,102497.94
2023-01-28T15:10:00.186Z,102507.97
2023-01-28T15:12:28.580Z,102509.16
2023-01-28T15:14:57.811Z,102508.25
2023-01-28T15:17:28.909Z,102508.06
2023-01-28T15:19:58.772Z,102505.13
2023-01-28T15:22:29.051Z,102504.88
2023-01-28T15:24:57.575Z,102496.69
2023-01-28T15:27:29.925Z,102500.25
2023-01-28T15:30:02.486Z,102499.38
2023-01-28T15:32:32.769Z,102503.84
2023-01-28T15:35:01.436Z,102507.78
2023-01-28T15:37:29.388Z,102499.81
2023-01-28T15:40:08.524Z,102502.25
2023-01-28T15:42:38.473Z,102500.50
2023-01-28T15:45:17.553Z,102509.56
2023-01-28T15:47:46.775Z,102511.13
2023-01-28T15:50:19.370Z,102501.59
2023-01-28T15:52:47.787Z,102503.06
2023-01-28T15:55:38.930Z,102521.31
2023-01-28T15:58:18.525Z,102520.38
2023-01-28T16:00:49.118Z,102515.22
2023-01-28T16:03:22.348Z,102519.28
2023-01-28T16:05:58.747Z,102530.56
2023-01-28T16:08:29.667Z,102539.06
2023-01-28T16:10:58.581Z,102536.97
2023-01-28T16:13:28.775Z,102521.84
2023-01-28T16:15:58.810Z,102536.38
2023-01-28T16:18:39.476Z,102538.13
2023-01-28T16:21:10.436Z,102525.78
2023-01-28T16:23:39.647Z,102531.56
2023-01-28T16:26:21.066Z,102528.16
2023-01-28T16:28:48.985Z,102523.25
2023-01-28T16:31:18.607Z,102520.00
2023-01-28T16:33:46.853Z,102513.69
2023-01-28T16:36:17.185Z,102508.75
2023-01-28T16:38:45.005Z,102516.06
2023-01-28T16:41:15.324Z,102529.09
2023-01-28T16:43:43.214Z,102527.50
2023-01-28T16:46:13.758Z,102535.97
2023-01-28T16:48:43.055Z,102536.69
2023-01-28T16:51:18.142Z,102533.56
2023-01-28T16:53:47.728Z,102536.31
2023-01-28T16:56:35.803Z,102541.41
2023-01-28T16:59:05.408Z,102538.03
2023-01-28T17:01:33.753Z,102544.69
2023-01-28T17:04:03.845Z,102549.19
2023-01-28T17:06:31.854Z,102557.44
2023-01-28T17:08:59.753Z,102564.53
2023-01-28T17:11:30.146Z,102557.78
2023-01-28T17:13:58.065Z,102574.19
2023-01-28T17:16:26.090Z,102584.31
2023-01-28T17:18:54.968Z,102582.69
2023-01-28T17:21:24.284Z,102578.81
2023-01-28T17:23:52.248Z,102587.97
2023-01-28T17:26:20.201Z,102582.41
2023-01-28T17:28:53.205Z,102603.03
2023-01-28T17:31:21.546Z,102605.03
2023-01-28T17:33:55.044Z,102596.91
2023-01-28T17:36:24.879Z,102593.88
2023-01-28T17:38:53.106Z,102593.72
2023-01-28T17:41:21.598Z,102607.28
2023-01-28T17:43:51.812Z,102599.56
2023-01-28T17:46:19.906Z,102579.72
2023-01-28T17:48:48.172Z,102575.09
2023-01-28T17:51:18.699Z,102580.03
2023-01-28T17:53:48.941Z,102582.81
2023-01-28T17:56:18.959Z,102565.91
2023-01-28T17:58:50.952Z,102566.66
2023-01-28T18:01:18.895Z,102575.00
2023-01-28T18:03:46.890Z,102589.16
2023-01-28T18:06:16.181Z,102589.19
2023-01-28T18:08:44.315Z,102590.69
2023-01-28T18:11:16.038Z,102599.28
2023-01-28T18:13:44.541Z,102594.69
2023-01-28T18:16:16.008Z,102603.84
2023-01-28T18:18:44.724Z,102576.13
2023-01-28T18:21:21.544Z,102585.84
2023-01-28T18:23:49.661Z,102586.22
2023-01-28T18:26:18.916Z,102579.22
2023-01-28T18:28:46.844Z,102585.66
2023-01-28T18:31:14.862Z,102585.59
2023-01-28T18:33:42.969Z,102574.13
2023-01-28T18:36:11.384Z,102589.16
2023-01-28T18:38:39.298Z,102580.88
2023-01-28T18:41:07.213Z,102590.53
2023-01-28T18:43:36.471Z,102585.75
2023-01-28T18:46:11.928Z,102583.06
2023-01-28T18:48:39.926Z,102580.63
2023-01-28T18:51:17.501Z,102588.31
2023-01-28T18:53:57.934Z,102598.16
2023-01-28T18:56:26.020Z,102601.13
2023-01-28T18:58:58.028Z,102601.56
2023-01-28T19:01:26.323Z,102605.31
2023-01-28T19:03:54.557Z,102604.66
2023-01-28T19:06:22.544Z,102590.50
2023-01-28T19:08:52.721Z,102579.47
2023-01-28T19:11:21.146Z,102584.09
2023-01-28T19:13:49.081Z,102589.19
2023-01-28T19:16:18.388Z,102578.66
2023-01-28T19:18:52.960Z,102576.44
2023-01-28T19:21:21.490Z,102575.91
2023-01-28T19:23:50.521Z,102584.81
2023-01-28T19:26:21.314Z,102591.78
2023-01-28T19:28:49.654Z,102595.06
2023-01-28T19:31:20.649Z,102579.91
2023-01-28T19:33:49.115Z,102588.28
2023-01-28T19:36:17.042Z,102570.16
2023-01-28T19:38:45.198Z,102578.31
2023-01-28T19:41:16.244Z,102576.59
2023-01-28T19:43:45.075Z,102589.94
2023-01-28T19:46:15.991Z,102584.63
2023-01-28T19:48:46.337Z,102589.63
2023-01-28T19:51:15.979Z,102591.22
2023-01-28T19:53:45.365Z,102584.44
2023-01-28T19:56:15.853Z,102595.84
2023-01-28T19:58:44.852Z,102590.53
2023-01-28T20:01:14.809Z,102601.09
2023-01-28T20:03:43.176Z,102603.56
2023-01-28T20:06:14.894Z,102603.56
2023-01-28T20:08:43.237Z,102614.78
2023-01-28T20:11:13.445Z,102630.16
2023-01-28T20:13:43.272Z,102629.03
2023-01-28T20:16:16.487Z,102629.13
2023-01-28T20:18:44.462Z,102616.91
2023-01-28T20:21:13.817Z,102609.88
2023-01-28T20:23:41.726Z,102604.16
2023-01-28T20:26:09.633Z,102614.97
2023-01-28T20:28:37.515Z,102604.34
2023-01-28T20:31:06.595Z,102600.81
2023-01-28T20:33:35.171Z,102599.13
2023-01-28T20:36:03.997Z,102597.53
2023-01-28T20:38:35.662Z,102589.97
2023-01-28T20:41:07.153Z,102585.34
2023-01-28T20:43:35.914Z,102588.03
2023-01-28T20:46:05.183Z,102588.91
2023-01-28T20:48:33.419Z,102595.03
2023-01-28T20:51:06.866Z,102597.53
2023-01-28T20:53:36.447Z,102591.53
2023-01-28T20:56:04.732Z,102589.28
2023-01-28T20:58:33.212Z,102577.06
2023-01-28T21:01:01.610Z,102581.63
2023-01-28T21:03:29.694Z,102595.59
2023-01-28T21:05:57.676Z,102596.81
2023-01-28T21:08:25.696Z,102594.97
2023-01-28T21:10:55.077Z,102594.97
2023-01-28T21:13:23.002Z,102591.31
2023-01-28T21:15:55.324Z,102588.88
2023-01-28T21:18:23.646Z,102585.53
2023-01-28T21:20:53.588Z,102587.25
2023-01-28T21:23:24.198Z,102578.03
2023-01-28T21:25:52.558Z,102574.22
2023-01-28T21:28:22.160Z,102576.84
2023-01-28T21:30:50.119Z,102567.28
2023-01-28T21:33:18.033Z,102575.19
2023-01-28T21:35:45.974Z,102574.59
2023-01-28T21:38:13.869Z,102577.16
2023-01-28T21:40:41.754Z,102575.28
2023-01-28T21:43:10.343Z,102582.53
2023-01-28T21:45:40.153Z,102594.22
2023-01-28T21:48:08.271Z,102576.81
2023-01-28T21:50:56.231Z,102587.50
2023-01-28T21:53:24.222Z,102586.38
2023-01-28T21:55:52.078Z,102582.50
2023-01-28T21:58:37.412Z,102582.47
2023-01-28T22:01:11.130Z,102581.25
2023-01-28T22:03:39.150Z,102570.66
2023-01-28T22:06:07.613Z,102574.00
2023-01-28T22:08:35.492Z,102572.41
2023-01-28T22:11:03.909Z,102567.13
2023-01-28T22:13:31.876Z,102560.63
2023-01-28T22:15:59.947Z,102570.53
2023-01-28T22:18:29.273Z,102557.19
2023-01-28T22:20:58.745Z,102545.63
2023-01-28T22:23:26.799Z,102544.78
2023-01-28T22:25:56.018Z,102549.06
2023-01-28T22:28:24.231Z,102553.38
2023-01-28T22:30:52.232Z,102549.09
2023-01-28T22:33:20.755Z,102548.25
2023-01-28T22:35:50.688Z,102550.78
2023-01-28T22:38:18.593Z,102548.94
2023-01-28T22:40:46.469Z,102563.31
2023-01-28T22:43:14.335Z,102555.91
2023-01-28T22:45:42.263Z,102548.19
2023-01-28T22:48:10.126Z,102544.66
2023-01-28T22:50:38.229Z,102540.91
2023-01-28T22:53:07.400Z,102541.72
2023-01-28T22:55:35.256Z,102537.91
2023-01-28T22:58:03.142Z,102536.31
2023-01-28T23:00:31.208Z,102538.63
2023-01-28T23:03:00.516Z,102550.91
2023-01-28T23:05:28.676Z,102550.25
2023-01-28T23:08:09.925Z,102545.06
2023-01-28T23:10:40.582Z,102541.19
2023-01-28T23:13:08.862Z,102534.50
2023-01-28T23:15:54.135Z,102527.78
2023-01-28T23:18:40.087Z,102524.59
2023-01-28T23:21:32.048Z,102516.44
2023-01-28T23:24:17.216Z,102510.31
2023-01-28T23:26:46.633Z,102517.41
2023-01-28T23:29:14.490Z,102511.28
2023-01-28T23:31:43.601Z,102513.44
2023-01-28T23:34:11.531Z,102509.16
2023-01-28T23:36:39.395Z,102498.88
2023-01-28T23:39:07.256Z,102503.91
2023-01-28T23:41:35.375Z,102488.31
2023-01-28T23:44:05.022Z,102483.69
2023-01-28T23:46:39.390Z,102490.06
2023-01-28T23:49:08.752Z,102487.66
2023-01-28T23:51:36.667Z,102492.13
2023-01-28T23:54:04.584Z,102490.22
2023-01-28T23:56:32.456Z,102486.50
2023-01-28T23:59:00.321Z,102469.78
